Flight Track Log - Related Links

Times and Time Zones

All times are in EDT time to prevent confusion due to time zone crossing. See the WBR2634 flight status page for this flight to view local times or setup timezone preferences in your user account.

Time Position Orientation Groundspeed Altitude Reporting Facility
EDT Latitude Longitude Course Direction KTS MPH feet Rate Location/Type
Mon 05:40:31 PM 40.7586 -91.0778 73° East 124 143 2,300  Level Chicago Center
Mon 05:41:33 PM 40.7725 -91.0306 69° East 117 135 3,100 774 Climbing Chicago Center
Mon 05:42:00 PM 40.8536 -90.7927 57° Northeast  Level FlightAware Approximate
Mon 05:42:35 PM 40.7844 -90.9875 70° East 120 138 3,900  Level Chicago Center
Mon 05:43:00 PM 40.8689 -90.7410 72° East  Level FlightAware Approximate
Mon 05:43:38 PM 40.7958 -90.9447 71° East 123 142 4,600  Level Chicago Center
Mon 05:44:00 PM 40.8825 -90.6865 72° East  Level FlightAware Approximate
Mon 05:44:40 PM 40.8086 -90.8992 70° East 126 145 5,100  Level Chicago Center
Mon 05:45:00 PM 40.8954 -90.6317 73° East  Level FlightAware Approximate
Mon 05:45:42 PM 40.8208 -90.8539 70° East 130 150 5,800  Level Chicago Center
Mon 05:46:44 PM 40.8328 -90.8072 71° East 132 152 6,600 726 Climbing Chicago Center
Mon 05:47:46 PM 40.8492 -90.7511 69° East 136 157 7,300 677 Climbing Chicago Center
Mon 05:48:48 PM 40.8617 -90.7036 71° East 137 158 8,000 629 Climbing Chicago Center
Mon 05:49:50 PM 40.8758 -90.6569 68° East 137 158 8,600 484 Climbing Chicago Center
Mon 05:50:52 PM 40.8878 -90.6064 73° East 143 165 9,000 194 Climbing Chicago Center
Mon 05:51:54 PM 40.9025 -90.5528 70° East 153 176 9,000  Level Chicago Center
Mon 05:52:56 PM 40.9175 -90.4986 70° East 156 180 9,000  Level Chicago Center
Mon 05:53:59 PM 40.9331 -90.4442 69° East 157 181 9,000  Level Chicago Center
Mon 05:55:01 PM 40.9503 -90.3786 71° East 157 181 9,000  Level Chicago Center
Mon 05:56:03 PM 40.9636 -90.3242 72° East 156 180 9,000  Level Chicago Center
Mon 05:57:05 PM 40.9758 -90.2683 74° East 157 181 9,000 48 Level Chicago Center
Mon 05:58:07 PM 40.9900 -90.2139 71° East 156 180 9,100 48 Climbing Chicago Center
Mon 05:59:09 PM 41.0050 -90.1614 69° East 153 176 9,100  Level Chicago Center
Mon 06:00:11 PM 41.0219 -90.1069 68° East 158 182 9,100  Level Chicago Center
Mon 06:01:13 PM 41.0406 -90.0408 70° East 159 183 9,100 -48 Level Chicago Center
Mon 06:02:15 PM 41.0558 -89.9861 70° East 158 182 9,000 -48 Descending Chicago Center
Mon 06:03:17 PM 41.0711 -89.9317 70° East 158 182 9,000 48 Level Chicago Center
Mon 06:04:20 PM 41.0864 -89.8772 70° East 157 181 9,100 48 Climbing Chicago Center
Mon 06:05:22 PM 41.1006 -89.8217 71° East 158 182 9,100  Level Chicago Center
Mon 06:06:24 PM 41.1150 -89.7650 71° East 161 185 9,100  Level Chicago Center
Mon 06:07:26 PM 41.1300 -89.7092 70° East 161 185 9,100  Level Chicago Center
Mon 06:08:28 PM 41.1467 -89.6431 71° East 159 183 9,100  Level Chicago Center
Mon 06:09:30 PM 41.1611 -89.5878 71° East 159 183 9,100  Level Chicago Center
Mon 06:10:32 PM 41.1856 -89.5386 57° Northeast 159 183 9,100  Level Chicago Center
Mon 06:11:34 PM 41.2089 -89.4875 59° Northeast 161 185 9,100 -48 Level Chicago Center
Mon 06:12:36 PM 41.2314 -89.4356 60° Northeast 163 188 9,000 -48 Descending Chicago Center
Mon 06:13:39 PM 41.2553 -89.3869 57° Northeast 158 182 9,000 48 Level Chicago Center
Mon 06:14:41 PM 41.2822 -89.3244 60° Northeast 160 184 9,100  Climbing Chicago Center
Mon 06:15:43 PM 41.3044 -89.2739 60° Northeast 160 184 9,000 -48 Descending Chicago Center
Mon 06:16:45 PM 41.3261 -89.2231 60° Northeast 159 183 9,000 48 Level Chicago Center
Mon 06:17:47 PM 41.3494 -89.1761 56° Northeast 156 180 9,100 48 Climbing Chicago Center
Mon 06:18:49 PM 41.3742 -89.1275 56° Northeast 157 181 9,100  Level Chicago Center
Mon 06:19:51 PM 41.4014 -89.0678 59° Northeast 159 183 9,100  Level Chicago Center
Mon 06:20:53 PM 41.4244 -89.0153 60° Northeast 163 188 9,100  Level Chicago Center
Mon 06:21:55 PM 41.4481 -88.9631 59° Northeast 164 189 9,100  Level Chicago Center
Mon 06:22:57 PM 41.4686 -88.9106 62° Northeast 162 186 9,100 -192 Level Chicago Center
Mon 06:24:00 PM 41.4858 -88.8586 66° East 155 178 8,700 -480 Descending Chicago Center
Mon 06:25:02 PM 41.5153 -88.7983 57° Northeast 160 184 8,100 -290 Descending Chicago Center
Mon 06:26:04 PM 41.5383 -88.7497 58° Northeast 157 181 8,100 -48 Level Chicago Center
Mon 06:27:06 PM 41.5619 -88.6997 58° Northeast 158 182 8,000  Descending Chicago Center
Mon 06:28:08 PM 41.5842 -88.6519 58° Northeast 153 176 8,100  Climbing Chicago Center
Mon 06:29:10 PM 41.6136 -88.6089 48° Northeast 158 182 8,000  Descending Chicago Center
Mon 06:30:12 PM 41.6381 -88.5614 55° Northeast 157 181 8,100  Climbing Chicago Center
Mon 06:31:14 PM 41.6686 -88.5047 54° Northeast 158 182 8,000 -194 Descending Chicago Center
Mon 06:32:16 PM 41.6919 -88.4561 57° Northeast 156 180 7,700 -435 Descending Chicago Center
Mon 06:33:18 PM 41.7156 -88.4061 58° Northeast 160 184 7,100 -532 Descending Chicago Center
Mon 06:34:20 PM 41.7494 -88.3653 42° Northeast 166 191 6,600 -528 Descending Chicago Center
Mon 06:35:23 PM 41.7844 -88.3244 41° Northeast 167 192 6,000 -672 Descending Chicago Center
Mon 06:36:25 PM 41.8036 -88.2625 67° East 159 183 5,200 -484 Descending Chicago Center
Mon 06:37:27 PM 41.8022 -88.2050 92° East 157 181 5,000 -435 Descending Chicago Center
Mon 06:38:29 PM 41.8144 -88.1497 73° East 155 178 4,300 -629 Descending Chicago Center
Mon 06:39:31 PM 41.8292 -88.0889 72° East 162 186 3,700 -629 Descending Chicago Center
Mon 06:40:33 PM 41.8558 -88.0339 57° Northeast 173 199 3,000 -716 Descending Chicago Center
Mon 06:41:20 PM 41.8833 -87.9833 54° Northeast 171 197 2,400 -729 Descending Chicago TRACON
Mon 06:42:20 PM 41.9167 -87.9500 37° Northeast 165 190 1,700 -750 Descending Chicago TRACON
Mon 06:43:20 PM 41.9500 -87.9000 48° Northeast 146 168 900 -800 Descending Chicago TRACON
Mon 06:45:00 PM 41.9667 -87.9000 56° Northeast  Level FlightAware Approximate

Login

Don't have an account? Register now (free) for customized features, flight alerts, and more!